sensor_id;sensor_type;location;lat;lon;timestamp;P1;durP1;ratioP1;P2;durP2;ratioP2
38901;SDS011;24661;53.566;9.910;2022-12-24T00:01:08;40.97;;;16.57;;
38901;SDS011;24661;53.566;9.910;2022-12-24T00:03:35;40.37;;;15.57;;
38901;SDS011;24661;53.566;9.910;2022-12-24T00:06:08;35.57;;;16.30;;
38901;SDS011;24661;53.566;9.910;2022-12-24T00:08:39;44.27;;;14.73;;
38901;SDS011;24661;53.566;9.910;2022-12-24T00:11:05;41.90;;;14.60;;
38901;SDS011;24661;53.566;9.910;2022-12-24T00:13:31;35.20;;;14.13;;
38901;SDS011;24661;53.566;9.910;2022-12-24T00:15:57;37.37;;;14.43;;
38901;SDS011;24661;53.566;9.910;2022-12-24T00:18:23;37.50;;;13.43;;
38901;SDS011;24661;53.566;9.910;2022-12-24T00:20:49;37.27;;;14.20;;
38901;SDS011;24661;53.566;9.910;2022-12-24T00:23:15;33.10;;;13.50;;
38901;SDS011;24661;53.566;9.910;2022-12-24T00:25:42;34.73;;;14.60;;
38901;SDS011;24661;53.566;9.910;2022-12-24T00:28:08;33.83;;;14.80;;
38901;SDS011;24661;53.566;9.910;2022-12-24T00:30:36;35.00;;;13.37;;
38901;SDS011;24661;53.566;9.910;2022-12-24T00:33:03;34.33;;;13.77;;
38901;SDS011;24661;53.566;9.910;2022-12-24T00:35:29;38.50;;;13.53;;
38901;SDS011;24661;53.566;9.910;2022-12-24T00:37:55;37.60;;;15.27;;
38901;SDS011;24661;53.566;9.910;2022-12-24T00:40:20;38.10;;;14.27;;
38901;SDS011;24661;53.566;9.910;2022-12-24T00:42:46;33.57;;;14.13;;
38901;SDS011;24661;53.566;9.910;2022-12-24T00:45:12;36.67;;;14.67;;
38901;SDS011;24661;53.566;9.910;2022-12-24T00:47:38;37.33;;;14.43;;
38901;SDS011;24661;53.566;9.910;2022-12-24T00:50:04;35.10;;;13.60;;
38901;SDS011;24661;53.566;9.910;2022-12-24T00:52:30;33.80;;;14.80;;
38901;SDS011;24661;53.566;9.910;2022-12-24T00:54:55;30.93;;;13.13;;
38901;SDS011;24661;53.566;9.910;2022-12-24T00:57:21;37.87;;;13.97;;
38901;SDS011;24661;53.566;9.910;2022-12-24T00:59:47;36.93;;;13.27;;
38901;SDS011;24661;53.566;9.910;2022-12-24T01:02:13;36.90;;;14.60;;
38901;SDS011;24661;53.566;9.910;2022-12-24T01:04:39;39.83;;;13.77;;
38901;SDS011;24661;53.566;9.910;2022-12-24T01:07:23;31.97;;;13.40;;
38901;SDS011;24661;53.566;9.910;2022-12-24T01:09:49;38.37;;;13.47;;
38901;SDS011;24661;53.566;9.910;2022-12-24T01:12:14;43.67;;;14.50;;
38901;SDS011;24661;53.566;9.910;2022-12-24T01:14:41;31.60;;;12.70;;
38901;SDS011;24661;53.566;9.910;2022-12-24T01:17:06;34.13;;;12.90;;
38901;SDS011;24661;53.566;9.910;2022-12-24T01:19:32;36.70;;;14.40;;
38901;SDS011;24661;53.566;9.910;2022-12-24T01:21:58;35.13;;;13.27;;
38901;SDS011;24661;53.566;9.910;2022-12-24T01:24:24;38.17;;;14.67;;
38901;SDS011;24661;53.566;9.910;2022-12-24T01:26:49;38.27;;;14.47;;
38901;SDS011;24661;53.566;9.910;2022-12-24T01:29:15;38.30;;;16.93;;
38901;SDS011;24661;53.566;9.910;2022-12-24T01:31:41;32.17;;;13.70;;
38901;SDS011;24661;53.566;9.910;2022-12-24T01:34:06;36.30;;;14.17;;
38901;SDS011;24661;53.566;9.910;2022-12-24T01:36:32;39.53;;;14.50;;
38901;SDS011;24661;53.566;9.910;2022-12-24T01:38:58;36.63;;;15.67;;
38901;SDS011;24661;53.566;9.910;2022-12-24T01:41:24;38.00;;;15.03;;
38901;SDS011;24661;53.566;9.910;2022-12-24T01:44:29;36.43;;;14.07;;
38901;SDS011;24661;53.566;9.910;2022-12-24T01:50:02;36.67;;;14.07;;
38901;SDS011;24661;53.566;9.910;2022-12-24T01:52:36;26.53;;;12.70;;
38901;SDS011;24661;53.566;9.910;2022-12-24T01:55:02;36.23;;;13.23;;
38901;SDS011;24661;53.566;9.910;2022-12-24T01:57:42;35.97;;;14.43;;
38901;SDS011;24661;53.566;9.910;2022-12-24T02:00:12;27.80;;;12.50;;
38901;SDS011;24661;53.566;9.910;2022-12-24T02:02:39;35.73;;;13.63;;
38901;SDS011;24661;53.566;9.910;2022-12-24T02:05:13;35.80;;;13.40;;
38901;SDS011;24661;53.566;9.910;2022-12-24T02:07:59;35.70;;;13.40;;
38901;SDS011;24661;53.566;9.910;2022-12-24T02:10:28;33.60;;;13.73;;
38901;SDS011;24661;53.566;9.910;2022-12-24T02:12:53;36.90;;;13.57;;
38901;SDS011;24661;53.566;9.910;2022-12-24T02:15:20;34.60;;;13.77;;
38901;SDS011;24661;53.566;9.910;2022-12-24T02:20:35;30.13;;;12.23;;
38901;SDS011;24661;53.566;9.910;2022-12-24T02:31:58;31.40;;;13.17;;
38901;SDS011;24661;53.566;9.910;2022-12-24T02:34:33;34.07;;;12.33;;
38901;SDS011;24661;53.566;9.910;2022-12-24T02:39:35;30.73;;;11.97;;
38901;SDS011;24661;53.566;9.910;2022-12-24T02:42:31;33.30;;;13.20;;
38901;SDS011;24661;53.566;9.910;2022-12-24T02:45:50;30.57;;;11.63;;
38901;SDS011;24661;53.566;9.910;2022-12-24T02:47:53;29.73;;;12.13;;
38901;SDS011;24661;53.566;9.910;2022-12-24T02:50:20;29.73;;;12.97;;
38901;SDS011;24661;53.566;9.910;2022-12-24T02:52:46;27.00;;;13.20;;
38901;SDS011;24661;53.566;9.910;2022-12-24T02:57:59;27.20;;;11.90;;
38901;SDS011;24661;53.566;9.910;2022-12-24T03:03:13;30.13;;;11.67;;
38901;SDS011;24661;53.566;9.910;2022-12-24T03:06:38;33.50;;;13.10;;
38901;SDS011;24661;53.566;9.910;2022-12-24T03:12:11;27.17;;;11.30;;
38901;SDS011;24661;53.566;9.910;2022-12-24T03:14:45;29.00;;;12.27;;
38901;SDS011;24661;53.566;9.910;2022-12-24T03:17:14;30.97;;;12.53;;
38901;SDS011;24661;53.566;9.910;2022-12-24T03:19:42;35.00;;;12.50;;
38901;SDS011;24661;53.566;9.910;2022-12-24T03:22:08;30.30;;;12.10;;
38901;SDS011;24661;53.566;9.910;2022-12-24T03:24:36;26.83;;;11.53;;
38901;SDS011;24661;53.566;9.910;2022-12-24T03:27:03;32.60;;;11.93;;
38901;SDS011;24661;53.566;9.910;2022-12-24T03:29:31;29.43;;;11.53;;
38901;SDS011;24661;53.566;9.910;2022-12-24T03:32:01;32.90;;;12.73;;
38901;SDS011;24661;53.566;9.910;2022-12-24T03:34:28;28.40;;;13.37;;
38901;SDS011;24661;53.566;9.910;2022-12-24T03:36:54;28.40;;;12.53;;
38901;SDS011;24661;53.566;9.910;2022-12-24T03:39:20;32.23;;;12.50;;
38901;SDS011;24661;53.566;9.910;2022-12-24T03:41:46;29.47;;;12.57;;
38901;SDS011;24661;53.566;9.910;2022-12-24T03:44:13;30.23;;;12.20;;
38901;SDS011;24661;53.566;9.910;2022-12-24T03:46:38;26.33;;;11.57;;
38901;SDS011;24661;53.566;9.910;2022-12-24T03:49:04;29.93;;;11.80;;
38901;SDS011;24661;53.566;9.910;2022-12-24T03:51:30;27.87;;;12.17;;
38901;SDS011;24661;53.566;9.910;2022-12-24T03:53:57;26.50;;;10.13;;
38901;SDS011;24661;53.566;9.910;2022-12-24T03:56:24;23.67;;;11.30;;
38901;SDS011;24661;53.566;9.910;2022-12-24T03:58:49;25.63;;;11.57;;
38901;SDS011;24661;53.566;9.910;2022-12-24T04:01:16;28.40;;;11.33;;
38901;SDS011;24661;53.566;9.910;2022-12-24T04:03:42;33.80;;;11.70;;
38901;SDS011;24661;53.566;9.910;2022-12-24T04:06:12;22.77;;;10.40;;
38901;SDS011;24661;53.566;9.910;2022-12-24T04:08:40;24.90;;;10.57;;
38901;SDS011;24661;53.566;9.910;2022-12-24T04:11:10;27.43;;;11.50;;
38901;SDS011;24661;53.566;9.910;2022-12-24T04:13:37;26.87;;;10.67;;
38901;SDS011;24661;53.566;9.910;2022-12-24T04:16:07;26.10;;;10.20;;
38901;SDS011;24661;53.566;9.910;2022-12-24T04:18:35;24.60;;;9.87;;
38901;SDS011;24661;53.566;9.910;2022-12-24T04:21:01;21.87;;;9.03;;
38901;SDS011;24661;53.566;9.910;2022-12-24T04:23:29;27.83;;;10.07;;
38901;SDS011;24661;53.566;9.910;2022-12-24T04:25:55;20.83;;;9.53;;
38901;SDS011;24661;53.566;9.910;2022-12-24T04:28:23;21.73;;;8.90;;
38901;SDS011;24661;53.566;9.910;2022-12-24T04:30:49;23.90;;;9.77;;
38901;SDS011;24661;53.566;9.910;2022-12-24T04:33:15;24.07;;;10.10;;
38901;SDS011;24661;53.566;9.910;2022-12-24T04:35:40;21.47;;;9.90;;
38901;SDS011;24661;53.566;9.910;2022-12-24T04:38:07;24.20;;;9.60;;
38901;SDS011;24661;53.566;9.910;2022-12-24T04:40:33;20.97;;;9.23;;
38901;SDS011;24661;53.566;9.910;2022-12-24T04:43:00;21.10;;;9.27;;
38901;SDS011;24661;53.566;9.910;2022-12-24T04:45:25;22.97;;;8.93;;
38901;SDS011;24661;53.566;9.910;2022-12-24T04:47:51;27.27;;;10.07;;
38901;SDS011;24661;53.566;9.910;2022-12-24T04:50:17;19.37;;;10.10;;
38901;SDS011;24661;53.566;9.910;2022-12-24T04:52:42;19.37;;;8.67;;
38901;SDS011;24661;53.566;9.910;2022-12-24T04:55:08;22.20;;;9.70;;
38901;SDS011;24661;53.566;9.910;2022-12-24T04:57:34;19.23;;;8.77;;
38901;SDS011;24661;53.566;9.910;2022-12-24T05:00:02;18.90;;;9.37;;
38901;SDS011;24661;53.566;9.910;2022-12-24T05:02:29;19.90;;;8.67;;
38901;SDS011;24661;53.566;9.910;2022-12-24T05:04:54;18.90;;;9.67;;
38901;SDS011;24661;53.566;9.910;2022-12-24T05:07:20;23.77;;;9.07;;
38901;SDS011;24661;53.566;9.910;2022-12-24T05:09:46;22.23;;;8.27;;
38901;SDS011;24661;53.566;9.910;2022-12-24T05:12:12;19.20;;;9.07;;
38901;SDS011;24661;53.566;9.910;2022-12-24T05:14:38;19.47;;;8.07;;
38901;SDS011;24661;53.566;9.910;2022-12-24T05:17:04;17.07;;;8.90;;
38901;SDS011;24661;53.566;9.910;2022-12-24T05:19:30;19.10;;;9.37;;
38901;SDS011;24661;53.566;9.910;2022-12-24T05:21:56;15.00;;;8.43;;
38901;SDS011;24661;53.566;9.910;2022-12-24T05:24:40;18.87;;;8.80;;
38901;SDS011;24661;53.566;9.910;2022-12-24T05:27:25;20.83;;;8.87;;
38901;SDS011;24661;53.566;9.910;2022-12-24T05:29:50;21.87;;;8.70;;
38901;SDS011;24661;53.566;9.910;2022-12-24T05:32:16;20.20;;;8.40;;
38901;SDS011;24661;53.566;9.910;2022-12-24T05:34:42;18.07;;;9.30;;
38901;SDS011;24661;53.566;9.910;2022-12-24T05:37:07;14.90;;;7.43;;
38901;SDS011;24661;53.566;9.910;2022-12-24T05:39:33;22.13;;;9.17;;
38901;SDS011;24661;53.566;9.910;2022-12-24T05:41:59;21.17;;;9.17;;
38901;SDS011;24661;53.566;9.910;2022-12-24T05:44:24;18.70;;;8.57;;
38901;SDS011;24661;53.566;9.910;2022-12-24T05:46:50;21.63;;;8.40;;
38901;SDS011;24661;53.566;9.910;2022-12-24T05:49:16;24.87;;;9.40;;
38901;SDS011;24661;53.566;9.910;2022-12-24T05:51:41;18.87;;;8.80;;
38901;SDS011;24661;53.566;9.910;2022-12-24T05:54:07;16.77;;;8.33;;
38901;SDS011;24661;53.566;9.910;2022-12-24T05:56:33;17.13;;;8.40;;
38901;SDS011;24661;53.566;9.910;2022-12-24T05:58:59;17.07;;;8.13;;
38901;SDS011;24661;53.566;9.910;2022-12-24T06:01:24;16.70;;;8.00;;
38901;SDS011;24661;53.566;9.910;2022-12-24T06:03:51;17.53;;;8.37;;
38901;SDS011;24661;53.566;9.910;2022-12-24T06:06:21;18.83;;;7.43;;
38901;SDS011;24661;53.566;9.910;2022-12-24T06:08:48;17.10;;;7.87;;
38901;SDS011;24661;53.566;9.910;2022-12-24T06:11:16;18.50;;;9.30;;
38901;SDS011;24661;53.566;9.910;2022-12-24T06:13:45;15.67;;;7.33;;
38901;SDS011;24661;53.566;9.910;2022-12-24T06:16:12;13.90;;;7.40;;
38901;SDS011;24661;53.566;9.910;2022-12-24T06:18:39;15.77;;;7.93;;
38901;SDS011;24661;53.566;9.910;2022-12-24T06:21:05;16.87;;;7.93;;
38901;SDS011;24661;53.566;9.910;2022-12-24T06:23:32;15.97;;;7.17;;
38901;SDS011;24661;53.566;9.910;2022-12-24T06:25:59;14.77;;;8.30;;
38901;SDS011;24661;53.566;9.910;2022-12-24T06:28:26;18.57;;;9.10;;
38901;SDS011;24661;53.566;9.910;2022-12-24T06:30:56;14.90;;;8.07;;
38901;SDS011;24661;53.566;9.910;2022-12-24T06:33:22;18.47;;;7.47;;
38901;SDS011;24661;53.566;9.910;2022-12-24T06:35:47;16.60;;;8.43;;
38901;SDS011;24661;53.566;9.910;2022-12-24T06:38:13;15.37;;;7.47;;
38901;SDS011;24661;53.566;9.910;2022-12-24T06:40:40;20.03;;;8.70;;
38901;SDS011;24661;53.566;9.910;2022-12-24T06:43:07;17.93;;;8.50;;
38901;SDS011;24661;53.566;9.910;2022-12-24T06:45:33;19.87;;;8.93;;
38901;SDS011;24661;53.566;9.910;2022-12-24T06:47:59;17.67;;;7.43;;
38901;SDS011;24661;53.566;9.910;2022-12-24T06:50:25;16.50;;;7.60;;
38901;SDS011;24661;53.566;9.910;2022-12-24T06:52:51;15.37;;;7.80;;
38901;SDS011;24661;53.566;9.910;2022-12-24T06:55:17;15.00;;;8.10;;
38901;SDS011;24661;53.566;9.910;2022-12-24T06:57:42;14.10;;;7.23;;
38901;SDS011;24661;53.566;9.910;2022-12-24T07:00:08;14.80;;;7.47;;
38901;SDS011;24661;53.566;9.910;2022-12-24T07:02:39;17.20;;;7.77;;
38901;SDS011;24661;53.566;9.910;2022-12-24T07:05:08;13.77;;;7.03;;
38901;SDS011;24661;53.566;9.910;2022-12-24T07:07:38;14.20;;;7.53;;
38901;SDS011;24661;53.566;9.910;2022-12-24T07:10:06;15.73;;;8.03;;
38901;SDS011;24661;53.566;9.910;2022-12-24T07:12:32;13.57;;;7.40;;
38901;SDS011;24661;53.566;9.910;2022-12-24T07:14:58;13.63;;;7.43;;
38901;SDS011;24661;53.566;9.910;2022-12-24T07:17:23;10.40;;;6.93;;
38901;SDS011;24661;53.566;9.910;2022-12-24T07:19:49;12.63;;;7.07;;
38901;SDS011;24661;53.566;9.910;2022-12-24T07:22:15;14.50;;;7.93;;
38901;SDS011;24661;53.566;9.910;2022-12-24T07:24:40;17.90;;;7.50;;
38901;SDS011;24661;53.566;9.910;2022-12-24T07:27:06;15.87;;;7.50;;
38901;SDS011;24661;53.566;9.910;2022-12-24T07:29:32;9.87;;;6.40;;
38901;SDS011;24661;53.566;9.910;2022-12-24T07:31:58;13.33;;;6.57;;
38901;SDS011;24661;53.566;9.910;2022-12-24T07:34:24;12.83;;;7.07;;
38901;SDS011;24661;53.566;9.910;2022-12-24T07:36:50;15.50;;;7.83;;
38901;SDS011;24661;53.566;9.910;2022-12-24T07:39:16;12.97;;;7.03;;
38901;SDS011;24661;53.566;9.910;2022-12-24T07:41:41;16.67;;;7.40;;
38901;SDS011;24661;53.566;9.910;2022-12-24T07:44:10;15.47;;;6.90;;
38901;SDS011;24661;53.566;9.910;2022-12-24T07:46:39;13.20;;;7.03;;
38901;SDS011;24661;53.566;9.910;2022-12-24T07:49:05;12.83;;;6.70;;
38901;SDS011;24661;53.566;9.910;2022-12-24T07:51:30;14.67;;;7.47;;
38901;SDS011;24661;53.566;9.910;2022-12-24T07:53:56;11.80;;;6.40;;
38901;SDS011;24661;53.566;9.910;2022-12-24T07:56:22;13.10;;;6.83;;
38901;SDS011;24661;53.566;9.910;2022-12-24T07:58:48;12.83;;;7.23;;
38901;SDS011;24661;53.566;9.910;2022-12-24T08:01:15;12.77;;;6.03;;
38901;SDS011;24661;53.566;9.910;2022-12-24T08:03:41;15.13;;;5.83;;
38901;SDS011;24661;53.566;9.910;2022-12-24T08:06:07;11.23;;;6.30;;
38901;SDS011;24661;53.566;9.910;2022-12-24T08:08:33;10.97;;;6.17;;
38901;SDS011;24661;53.566;9.910;2022-12-24T08:10:59;15.97;;;6.93;;
38901;SDS011;24661;53.566;9.910;2022-12-24T08:13:26;12.37;;;6.40;;
38901;SDS011;24661;53.566;9.910;2022-12-24T08:15:52;9.93;;;6.10;;
38901;SDS011;24661;53.566;9.910;2022-12-24T08:18:18;9.67;;;5.23;;
38901;SDS011;24661;53.566;9.910;2022-12-24T08:20:44;9.97;;;5.43;;
38901;SDS011;24661;53.566;9.910;2022-12-24T08:23:09;8.80;;;5.43;;
38901;SDS011;24661;53.566;9.910;2022-12-24T08:25:35;10.97;;;5.73;;
38901;SDS011;24661;53.566;9.910;2022-12-24T08:28:02;9.00;;;5.57;;
38901;SDS011;24661;53.566;9.910;2022-12-24T08:30:28;11.87;;;6.07;;
38901;SDS011;24661;53.566;9.910;2022-12-24T08:32:53;13.23;;;6.33;;
38901;SDS011;24661;53.566;9.910;2022-12-24T08:35:19;13.93;;;5.90;;
38901;SDS011;24661;53.566;9.910;2022-12-24T08:37:45;9.20;;;5.40;;
38901;SDS011;24661;53.566;9.910;2022-12-24T08:40:11;8.77;;;5.07;;
38901;SDS011;24661;53.566;9.910;2022-12-24T08:42:37;10.83;;;5.40;;
38901;SDS011;24661;53.566;9.910;2022-12-24T08:45:02;7.13;;;5.10;;
38901;SDS011;24661;53.566;9.910;2022-12-24T08:47:28;12.70;;;5.87;;
38901;SDS011;24661;53.566;9.910;2022-12-24T08:49:54;11.97;;;6.37;;
38901;SDS011;24661;53.566;9.910;2022-12-24T08:52:19;10.23;;;5.97;;
38901;SDS011;24661;53.566;9.910;2022-12-24T08:54:45;10.53;;;5.87;;
38901;SDS011;24661;53.566;9.910;2022-12-24T08:57:11;10.83;;;6.37;;
38901;SDS011;24661;53.566;9.910;2022-12-24T08:59:37;12.90;;;6.33;;
38901;SDS011;24661;53.566;9.910;2022-12-24T09:02:03;12.43;;;7.20;;
38901;SDS011;24661;53.566;9.910;2022-12-24T09:04:28;14.17;;;6.63;;
38901;SDS011;24661;53.566;9.910;2022-12-24T09:06:54;13.90;;;7.20;;
38901;SDS011;24661;53.566;9.910;2022-12-24T09:09:20;12.27;;;6.67;;
38901;SDS011;24661;53.566;9.910;2022-12-24T09:11:45;12.40;;;7.43;;
38901;SDS011;24661;53.566;9.910;2022-12-24T09:14:11;15.53;;;8.10;;
38901;SDS011;24661;53.566;9.910;2022-12-24T09:16:37;11.37;;;6.67;;
38901;SDS011;24661;53.566;9.910;2022-12-24T09:19:04;12.67;;;7.17;;
38901;SDS011;24661;53.566;9.910;2022-12-24T09:21:30;13.17;;;8.03;;
38901;SDS011;24661;53.566;9.910;2022-12-24T09:23:55;14.00;;;8.43;;
38901;SDS011;24661;53.566;9.910;2022-12-24T09:26:22;14.00;;;8.00;;
38901;SDS011;24661;53.566;9.910;2022-12-24T09:28:50;15.07;;;8.63;;
38901;SDS011;24661;53.566;9.910;2022-12-24T09:31:16;15.10;;;8.87;;
38901;SDS011;24661;53.566;9.910;2022-12-24T09:33:43;18.13;;;9.97;;
38901;SDS011;24661;53.566;9.910;2022-12-24T09:36:10;17.20;;;9.57;;
38901;SDS011;24661;53.566;9.910;2022-12-24T09:38:36;17.83;;;9.10;;
38901;SDS011;24661;53.566;9.910;2022-12-24T09:41:11;16.53;;;9.53;;
38901;SDS011;24661;53.566;9.910;2022-12-24T09:43:37;18.20;;;9.83;;
38901;SDS011;24661;53.566;9.910;2022-12-24T09:46:23;22.33;;;11.47;;
38901;SDS011;24661;53.566;9.910;2022-12-24T09:48:53;22.23;;;10.13;;
38901;SDS011;24661;53.566;9.910;2022-12-24T09:56:56;13.80;;;9.07;;
38901;SDS011;24661;53.566;9.910;2022-12-24T09:59:47;15.93;;;8.30;;
38901;SDS011;24661;53.566;9.910;2022-12-24T10:02:14;13.37;;;8.03;;
38901;SDS011;24661;53.566;9.910;2022-12-24T10:04:44;14.03;;;8.97;;
38901;SDS011;24661;53.566;9.910;2022-12-24T10:21:25;16.13;;;7.80;;
38901;SDS011;24661;53.566;9.910;2022-12-24T10:24:06;10.97;;;6.87;;
38901;SDS011;24661;53.566;9.910;2022-12-24T10:26:42;11.57;;;7.00;;
38901;SDS011;24661;53.566;9.910;2022-12-24T10:29:26;12.20;;;7.47;;
38901;SDS011;24661;53.566;9.910;2022-12-24T10:34:35;10.50;;;6.23;;
38901;SDS011;24661;53.566;9.910;2022-12-24T10:37:05;9.43;;;5.83;;
38901;SDS011;24661;53.566;9.910;2022-12-24T10:39:34;13.53;;;7.67;;
38901;SDS011;24661;53.566;9.910;2022-12-24T10:42:00;9.07;;;6.17;;
38901;SDS011;24661;53.566;9.910;2022-12-24T10:44:27;9.50;;;6.27;;
38901;SDS011;24661;53.566;9.910;2022-12-24T10:46:56;9.83;;;6.20;;
38901;SDS011;24661;53.566;9.910;2022-12-24T10:49:29;13.83;;;7.57;;
38901;SDS011;24661;53.566;9.910;2022-12-24T10:52:23;14.83;;;7.63;;
38901;SDS011;24661;53.566;9.910;2022-12-24T10:55:04;14.50;;;8.17;;
38901;SDS011;24661;53.566;9.910;2022-12-24T10:57:43;10.43;;;7.07;;
38901;SDS011;24661;53.566;9.910;2022-12-24T11:00:17;10.73;;;6.47;;
38901;SDS011;24661;53.566;9.910;2022-12-24T11:02:45;11.80;;;7.20;;
38901;SDS011;24661;53.566;9.910;2022-12-24T11:10:26;11.60;;;7.53;;
38901;SDS011;24661;53.566;9.910;2022-12-24T11:12:52;11.00;;;7.20;;
38901;SDS011;24661;53.566;9.910;2022-12-24T11:15:18;12.57;;;8.07;;
38901;SDS011;24661;53.566;9.910;2022-12-24T11:17:51;14.17;;;8.33;;
38901;SDS011;24661;53.566;9.910;2022-12-24T11:20:23;20.27;;;8.73;;
38901;SDS011;24661;53.566;9.910;2022-12-24T11:22:52;13.43;;;8.40;;
38901;SDS011;24661;53.566;9.910;2022-12-24T11:25:19;15.30;;;8.60;;
38901;SDS011;24661;53.566;9.910;2022-12-24T11:28:11;10.60;;;6.63;;
38901;SDS011;24661;53.566;9.910;2022-12-24T11:30:49;13.67;;;7.90;;
38901;SDS011;24661;53.566;9.910;2022-12-24T11:33:31;15.57;;;8.20;;
38901;SDS011;24661;53.566;9.910;2022-12-24T11:36:11;15.37;;;7.60;;
38901;SDS011;24661;53.566;9.910;2022-12-24T11:38:37;17.10;;;7.80;;
38901;SDS011;24661;53.566;9.910;2022-12-24T11:41:08;11.97;;;7.20;;
38901;SDS011;24661;53.566;9.910;2022-12-24T11:43:39;22.30;;;9.43;;
38901;SDS011;24661;53.566;9.910;2022-12-24T11:51:36;31.73;;;10.40;;
38901;SDS011;24661;53.566;9.910;2022-12-24T11:54:23;15.83;;;8.27;;
38901;SDS011;24661;53.566;9.910;2022-12-24T11:56:54;17.17;;;8.93;;
38901;SDS011;24661;53.566;9.910;2022-12-24T11:59:33;31.80;;;11.20;;
38901;SDS011;24661;53.566;9.910;2022-12-24T12:04:53;23.03;;;9.30;;
38901;SDS011;24661;53.566;9.910;2022-12-24T12:07:34;14.97;;;8.27;;
38901;SDS011;24661;53.566;9.910;2022-12-24T12:10:04;23.07;;;11.10;;
38901;SDS011;24661;53.566;9.910;2022-12-24T12:12:42;21.87;;;11.03;;
38901;SDS011;24661;53.566;9.910;2022-12-24T12:15:33;20.00;;;10.40;;
38901;SDS011;24661;53.566;9.910;2022-12-24T12:18:22;30.13;;;11.07;;
38901;SDS011;24661;53.566;9.910;2022-12-24T12:20:58;20.73;;;11.20;;
38901;SDS011;24661;53.566;9.910;2022-12-24T12:23:29;21.50;;;9.83;;
38901;SDS011;24661;53.566;9.910;2022-12-24T12:26:03;26.33;;;11.07;;
38901;SDS011;24661;53.566;9.910;2022-12-24T12:28:36;22.10;;;9.60;;
38901;SDS011;24661;53.566;9.910;2022-12-24T12:36:29;23.67;;;10.23;;
38901;SDS011;24661;53.566;9.910;2022-12-24T12:39:00;22.33;;;9.90;;
38901;SDS011;24661;53.566;9.910;2022-12-24T12:41:32;19.70;;;10.10;;
38901;SDS011;24661;53.566;9.910;2022-12-24T12:47:44;28.97;;;10.40;;
38901;SDS011;24661;53.566;9.910;2022-12-24T12:51:18;19.40;;;9.67;;
38901;SDS011;24661;53.566;9.910;2022-12-24T12:56:43;20.50;;;9.90;;
38901;SDS011;24661;53.566;9.910;2022-12-24T13:01:48;30.20;;;12.13;;
38901;SDS011;24661;53.566;9.910;2022-12-24T13:04:39;22.97;;;9.53;;
38901;SDS011;24661;53.566;9.910;2022-12-24T13:13:01;34.37;;;12.00;;
38901;SDS011;24661;53.566;9.910;2022-12-24T13:21:16;22.70;;;11.60;;
38901;SDS011;24661;53.566;9.910;2022-12-24T13:23:45;29.33;;;10.33;;
38901;SDS011;24661;53.566;9.910;2022-12-24T13:26:12;26.83;;;10.47;;
38901;SDS011;24661;53.566;9.910;2022-12-24T13:28:39;27.10;;;12.23;;
38901;SDS011;24661;53.566;9.910;2022-12-24T13:36:11;26.23;;;10.07;;
38901;SDS011;24661;53.566;9.910;2022-12-24T13:38:41;27.57;;;10.70;;
38901;SDS011;24661;53.566;9.910;2022-12-24T13:44:03;29.20;;;10.27;;
38901;SDS011;24661;53.566;9.910;2022-12-24T13:46:49;23.03;;;9.20;;
38901;SDS011;24661;53.566;9.910;2022-12-24T13:54:40;30.93;;;11.57;;
38901;SDS011;24661;53.566;9.910;2022-12-24T14:00:03;27.83;;;9.73;;
38901;SDS011;24661;53.566;9.910;2022-12-24T14:02:34;29.70;;;9.97;;
38901;SDS011;24661;53.566;9.910;2022-12-24T14:05:07;30.10;;;11.23;;
38901;SDS011;24661;53.566;9.910;2022-12-24T14:07:48;30.20;;;9.17;;
38901;SDS011;24661;53.566;9.910;2022-12-24T14:16:14;29.50;;;7.83;;
38901;SDS011;24661;53.566;9.910;2022-12-24T14:18:43;40.63;;;9.50;;
38901;SDS011;24661;53.566;9.910;2022-12-24T14:24:26;36.43;;;8.73;;
38901;SDS011;24661;53.566;9.910;2022-12-24T14:26:57;19.00;;;7.67;;
38901;SDS011;24661;53.566;9.910;2022-12-24T14:29:31;27.63;;;8.77;;
38901;SDS011;24661;53.566;9.910;2022-12-24T14:32:11;19.63;;;8.23;;
38901;SDS011;24661;53.566;9.910;2022-12-24T14:34:39;29.10;;;7.73;;
38901;SDS011;24661;53.566;9.910;2022-12-24T14:37:05;30.07;;;8.47;;
38901;SDS011;24661;53.566;9.910;2022-12-24T14:39:33;21.97;;;7.27;;
38901;SDS011;24661;53.566;9.910;2022-12-24T14:45:04;28.93;;;10.27;;
38901;SDS011;24661;53.566;9.910;2022-12-24T14:56:26;15.83;;;6.43;;
38901;SDS011;24661;53.566;9.910;2022-12-24T14:58:52;25.20;;;6.47;;
38901;SDS011;24661;53.566;9.910;2022-12-24T15:01:24;29.20;;;7.50;;
38901;SDS011;24661;53.566;9.910;2022-12-24T15:04:02;28.40;;;7.40;;
38901;SDS011;24661;53.566;9.910;2022-12-24T15:06:33;23.20;;;7.23;;
38901;SDS011;24661;53.566;9.910;2022-12-24T15:09:04;18.97;;;6.07;;
38901;SDS011;24661;53.566;9.910;2022-12-24T15:11:35;21.83;;;6.43;;
38901;SDS011;24661;53.566;9.910;2022-12-24T15:14:01;17.80;;;6.33;;
38901;SDS011;24661;53.566;9.910;2022-12-24T15:16:31;34.60;;;12.03;;
38901;SDS011;24661;53.566;9.910;2022-12-24T15:19:03;30.33;;;7.97;;
38901;SDS011;24661;53.566;9.910;2022-12-24T15:21:42;24.50;;;7.80;;
38901;SDS011;24661;53.566;9.910;2022-12-24T15:24:28;22.70;;;6.53;;
38901;SDS011;24661;53.566;9.910;2022-12-24T15:26:58;29.67;;;8.23;;
38901;SDS011;24661;53.566;9.910;2022-12-24T15:29:28;16.90;;;6.13;;
38901;SDS011;24661;53.566;9.910;2022-12-24T15:32:00;26.57;;;7.80;;
38901;SDS011;24661;53.566;9.910;2022-12-24T15:34:35;30.97;;;9.43;;
38901;SDS011;24661;53.566;9.910;2022-12-24T15:40:08;23.30;;;8.43;;
38901;SDS011;24661;53.566;9.910;2022-12-24T15:42:57;31.23;;;6.70;;
38901;SDS011;24661;53.566;9.910;2022-12-24T15:45:27;22.13;;;7.13;;
38901;SDS011;24661;53.566;9.910;2022-12-24T15:47:59;26.23;;;7.27;;
38901;SDS011;24661;53.566;9.910;2022-12-24T15:50:33;34.87;;;8.40;;
38901;SDS011;24661;53.566;9.910;2022-12-24T15:53:01;23.33;;;7.30;;
38901;SDS011;24661;53.566;9.910;2022-12-24T16:03:32;24.27;;;8.20;;
38901;SDS011;24661;53.566;9.910;2022-12-24T16:06:03;33.37;;;7.83;;
38901;SDS011;24661;53.566;9.910;2022-12-24T16:08:36;45.37;;;8.87;;
38901;SDS011;24661;53.566;9.910;2022-12-24T16:13:30;24.33;;;7.73;;
38901;SDS011;24661;53.566;9.910;2022-12-24T16:18:25;23.63;;;8.27;;
38901;SDS011;24661;53.566;9.910;2022-12-24T16:20:58;25.43;;;7.70;;
38901;SDS011;24661;53.566;9.910;2022-12-24T16:23:45;29.17;;;7.50;;
38901;SDS011;24661;53.566;9.910;2022-12-24T16:26:11;21.30;;;6.70;;
38901;SDS011;24661;53.566;9.910;2022-12-24T16:28:36;26.90;;;7.67;;
38901;SDS011;24661;53.566;9.910;2022-12-24T16:31:05;27.63;;;8.27;;
38901;SDS011;24661;53.566;9.910;2022-12-24T16:33:31;23.00;;;8.20;;
38901;SDS011;24661;53.566;9.910;2022-12-24T16:35:56;27.47;;;8.90;;
38901;SDS011;24661;53.566;9.910;2022-12-24T16:38:22;25.03;;;8.07;;
38901;SDS011;24661;53.566;9.910;2022-12-24T16:40:48;33.17;;;9.77;;
38901;SDS011;24661;53.566;9.910;2022-12-24T16:43:14;24.97;;;7.70;;
38901;SDS011;24661;53.566;9.910;2022-12-24T16:45:59;23.03;;;7.97;;
38901;SDS011;24661;53.566;9.910;2022-12-24T16:48:26;23.33;;;7.57;;
38901;SDS011;24661;53.566;9.910;2022-12-24T16:50:52;27.77;;;8.77;;
38901;SDS011;24661;53.566;9.910;2022-12-24T16:53:18;23.10;;;8.37;;
38901;SDS011;24661;53.566;9.910;2022-12-24T16:55:45;26.87;;;9.33;;
38901;SDS011;24661;53.566;9.910;2022-12-24T16:58:12;29.53;;;11.27;;
38901;SDS011;24661;53.566;9.910;2022-12-24T17:00:39;28.47;;;7.93;;
38901;SDS011;24661;53.566;9.910;2022-12-24T17:03:08;26.13;;;8.53;;
38901;SDS011;24661;53.566;9.910;2022-12-24T17:05:38;22.57;;;10.20;;